createdAt,value
2018-09-07T00:00:32.654Z,22.05
2018-09-07T00:01:13.128Z,21.91
2018-09-07T00:01:53.620Z,21.91
2018-09-07T00:02:34.132Z,21.96
2018-09-07T00:03:14.679Z,21.98
2018-09-07T00:03:55.160Z,21.98
2018-09-07T00:04:35.717Z,22.02
2018-09-07T00:05:16.191Z,22.06
2018-09-07T00:05:56.695Z,22
2018-09-07T00:06:37.221Z,22.02
2018-09-07T00:07:17.723Z,22.09
2018-09-07T00:07:58.268Z,22.07
2018-09-07T00:08:38.760Z,22.18
2018-09-07T00:09:19.287Z,22.15
2018-09-07T00:09:59.838Z,22.18
2018-09-07T00:10:40.342Z,22.02
2018-09-07T00:11:20.856Z,21.92
2018-09-07T00:12:58.726Z,21.99
2018-09-07T00:13:39.254Z,21.92
2018-09-07T00:14:19.767Z,22.02
2018-09-07T00:15:00.247Z,22.03
2018-09-07T00:15:40.727Z,22.14
2018-09-07T00:16:21.221Z,22.12
2018-09-07T00:17:01.751Z,22.07
2018-09-07T00:17:42.264Z,21.91
2018-09-07T00:18:22.703Z,21.94
2018-09-07T00:19:03.216Z,22.1
2018-09-07T00:19:43.683Z,22.24
2018-09-07T00:20:24.936Z,22
2018-09-07T00:21:05.466Z,21.98
2018-09-07T00:21:45.979Z,21.92
2018-09-07T00:22:26.495Z,21.99
2018-09-07T00:23:06.969Z,22.05
2018-09-07T00:23:47.549Z,22.06
2018-09-07T00:24:28.029Z,22.1
2018-09-07T00:25:08.533Z,22.12
2018-09-07T00:25:49.044Z,22.14
2018-09-07T00:26:29.542Z,22.17
2018-09-07T00:27:10.005Z,22.2
2018-09-07T00:27:50.507Z,22.17
2018-09-07T00:28:31.045Z,22.15
2018-09-07T00:29:11.531Z,22.2
2018-09-07T00:29:51.992Z,22.3
2018-09-07T00:30:32.520Z,22.14
2018-09-07T00:31:13.030Z,22.02
2018-09-07T00:31:53.471Z,22.05
2018-09-07T00:32:33.978Z,22
2018-09-07T00:33:14.502Z,22.02
2018-09-07T00:33:55.006Z,22.05
2018-09-07T00:34:35.471Z,22
2018-09-07T00:35:15.972Z,22.18
2018-09-07T00:35:56.437Z,21.94
2018-09-07T00:36:36.913Z,21.9
2018-09-07T00:37:17.430Z,21.96
2018-09-07T00:37:57.910Z,21.88
2018-09-07T00:38:38.481Z,21.79
2018-09-07T00:39:18.941Z,21.98
2018-09-07T00:40:00.398Z,21.88
2018-09-07T00:40:40.847Z,21.82
2018-09-07T00:41:21.338Z,21.82
2018-09-07T00:42:01.849Z,21.98
2018-09-07T00:42:42.495Z,21.92
2018-09-07T00:43:23.004Z,21.98
2018-09-07T00:44:03.501Z,21.86
2018-09-07T00:44:44.005Z,21.92
2018-09-07T00:45:24.539Z,22.02
2018-09-07T00:46:04.989Z,21.99
2018-09-07T00:46:45.521Z,22.02
2018-09-07T00:47:25.994Z,21.94
2018-09-07T00:48:06.463Z,21.91
2018-09-07T00:48:47.006Z,21.98
2018-09-07T00:49:27.475Z,21.92
2018-09-07T00:50:07.946Z,21.94
2018-09-07T00:50:48.403Z,22.03
2018-09-07T00:51:28.920Z,22.02
2018-09-07T00:52:09.387Z,21.83
2018-09-07T00:52:49.933Z,21.77
2018-09-07T00:53:30.389Z,21.82
2018-09-07T00:54:11.001Z,21.77
2018-09-07T00:54:51.409Z,21.83
2018-09-07T00:55:31.903Z,21.9
2018-09-07T00:56:12.382Z,21.92
2018-09-07T00:56:52.928Z,21.96
2018-09-07T00:57:33.413Z,21.92
2018-09-07T00:58:13.889Z,21.94
2018-09-07T00:58:54.381Z,21.9
2018-09-07T00:59:34.912Z,21.94
2018-09-07T01:00:15.392Z,21.98
2018-09-07T01:00:55.847Z,21.94
2018-09-07T01:01:36.370Z,21.88
2018-09-07T01:02:16.873Z,21.92
2018-09-07T01:02:57.405Z,21.83
2018-09-07T01:03:37.932Z,21.8
2018-09-07T01:04:18.469Z,21.83
2018-09-07T01:04:58.994Z,21.8
2018-09-07T01:05:39.531Z,21.91
2018-09-07T01:06:20.032Z,21.94
2018-09-07T01:07:00.536Z,22.02
2018-09-07T01:07:41.073Z,22
2018-09-07T01:08:21.586Z,21.92
2018-09-07T01:09:02.090Z,21.99
2018-09-07T01:09:42.606Z,21.9
2018-09-07T01:10:23.140Z,21.92
2018-09-07T01:11:03.652Z,21.82
2018-09-07T01:11:44.182Z,21.74
2018-09-07T01:12:24.697Z,21.74
2018-09-07T01:13:05.237Z,21.88
2018-09-07T01:13:45.736Z,21.91
2018-09-07T01:14:26.247Z,21.96
2018-09-07T01:15:06.865Z,21.99
2018-09-07T01:15:47.297Z,22.02
2018-09-07T01:16:27.821Z,21.98
2018-09-07T01:17:08.328Z,21.99
2018-09-07T01:17:48.829Z,22
2018-09-07T01:18:29.363Z,21.92
2018-09-07T01:19:09.839Z,21.98
2018-09-07T01:19:50.340Z,21.99
2018-09-07T01:20:30.850Z,21.98
2018-09-07T01:21:11.435Z,21.96
2018-09-07T01:21:51.983Z,21.98
2018-09-07T01:22:32.441Z,21.99
2018-09-07T01:23:12.948Z,21.92
2018-09-07T01:23:53.478Z,21.94
2018-09-07T01:24:33.941Z,21.96
2018-09-07T01:25:14.433Z,21.82
2018-09-07T01:25:54.907Z,21.92
2018-09-07T01:26:35.438Z,21.98
2018-09-07T01:27:15.858Z,21.92
2018-09-07T01:27:56.405Z,22
2018-09-07T01:28:36.902Z,22.03
2018-09-07T01:29:17.325Z,22
2018-09-07T01:29:57.831Z,21.98
2018-09-07T01:30:38.348Z,22.02
2018-09-07T01:31:18.818Z,21.96
2018-09-07T01:31:59.313Z,22
2018-09-07T01:32:40.648Z,22.06
2018-09-07T01:33:21.102Z,22.12
2018-09-07T01:34:01.561Z,22.17
2018-09-07T01:34:42.079Z,22.06
2018-09-07T01:35:22.618Z,21.9
2018-09-07T01:36:03.062Z,21.99
2018-09-07T01:36:43.608Z,21.98
2018-09-07T01:37:24.099Z,21.94
2018-09-07T01:38:04.583Z,21.82
2018-09-07T01:38:45.111Z,21.83
2018-09-07T01:39:25.623Z,21.94
2018-09-07T01:40:06.099Z,22.02
2018-09-07T01:40:46.630Z,21.98
2018-09-07T01:41:27.107Z,21.83
2018-09-07T01:42:07.668Z,21.82
2018-09-07T01:42:48.083Z,21.82
2018-09-07T01:43:28.624Z,21.8
2018-09-07T01:44:09.084Z,21.86
2018-09-07T01:44:49.556Z,21.86
2018-09-07T01:45:30.131Z,21.92
2018-09-07T01:46:10.554Z,21.96
2018-09-07T01:46:51.109Z,21.96
2018-09-07T01:47:31.606Z,21.92
2018-09-07T01:48:12.063Z,22.02
2018-09-07T01:48:52.565Z,22.05
2018-09-07T01:49:33.001Z,21.99
2018-09-07T01:50:13.565Z,22.09
2018-09-07T01:50:54.033Z,22.18
2018-09-07T01:51:34.515Z,22.22
2018-09-07T01:52:15.004Z,22.14
2018-09-07T01:52:55.553Z,22.17
2018-09-07T01:53:35.993Z,22.22
2018-09-07T01:54:16.496Z,22.27
2018-09-07T01:54:57.043Z,22.3
2018-09-07T01:55:37.485Z,22.33
2018-09-07T01:56:18.002Z,22.27
2018-09-07T01:56:58.543Z,22.27
2018-09-07T01:57:39.022Z,22.27
2018-09-07T01:58:19.440Z,22.35
2018-09-07T01:58:59.957Z,22.33
2018-09-07T01:59:40.435Z,22.31
2018-09-07T02:00:20.955Z,22.3
2018-09-07T02:01:01.439Z,22.31
2018-09-07T02:01:41.973Z,22.3
2018-09-07T02:02:22.493Z,22.28
2018-09-07T02:03:02.930Z,22.25
2018-09-07T02:03:43.483Z,22.3
2018-09-07T02:04:24.050Z,22.24
2018-09-07T02:05:04.436Z,22.28
2018-09-07T02:05:44.954Z,22.25
2018-09-07T02:06:25.469Z,22.21
2018-09-07T02:07:05.880Z,22.28
2018-09-07T02:07:46.397Z,22.33
2018-09-07T02:08:26.887Z,22.31
2018-09-07T02:09:07.388Z,22.3
2018-09-07T02:09:47.929Z,22.28
2018-09-07T02:10:28.414Z,22.28
2018-09-07T02:11:09.238Z,22.27
2018-09-07T02:11:51.327Z,22.28
2018-09-07T02:12:31.834Z,22.24
2018-09-07T02:13:12.361Z,22.2
2018-09-07T02:13:52.870Z,22.21
2018-09-07T02:14:33.324Z,22.03
2018-09-07T02:15:13.866Z,22.09
2018-09-07T02:15:54.444Z,22.1
2018-09-07T02:16:34.953Z,22.17
2018-09-07T02:17:15.414Z,22.14
2018-09-07T02:17:55.873Z,22.17
2018-09-07T02:18:36.406Z,22.3
2018-09-07T02:19:16.911Z,22.18
2018-09-07T02:19:57.362Z,22.2
2018-09-07T02:20:37.819Z,22.17
2018-09-07T02:21:18.327Z,22.21
2018-09-07T02:21:58.845Z,22.3
2018-09-07T02:22:39.254Z,22.31
2018-09-07T02:23:19.772Z,22.3
2018-09-07T02:24:00.316Z,22.28
2018-09-07T02:24:40.823Z,22.28
2018-09-07T02:25:21.322Z,22.3
2018-09-07T02:26:01.853Z,22.28
2018-09-07T02:26:42.310Z,22.31
2018-09-07T02:27:22.787Z,22.31
2018-09-07T02:28:03.320Z,22.28
2018-09-07T02:28:44.493Z,22.28
2018-09-07T02:29:24.352Z,22.28
2018-09-07T02:30:04.816Z,22.3
2018-09-07T02:30:45.306Z,22.24
2018-09-07T02:31:25.800Z,22.28
2018-09-07T02:32:06.262Z,22.15
2018-09-07T02:32:46.764Z,22.27
2018-09-07T02:33:27.324Z,22.35
2018-09-07T02:34:07.769Z,22.22
2018-09-07T02:34:48.293Z,22.31
2018-09-07T02:35:31.524Z,22.3
2018-09-07T02:36:11.969Z,22.3
2018-09-07T02:36:52.463Z,22.31
2018-09-07T02:37:33.021Z,22.33
2018-09-07T02:38:13.440Z,22.33
2018-09-07T02:38:53.958Z,22.43
2018-09-07T02:39:34.454Z,22.35
2018-09-07T02:40:14.966Z,22.28
2018-09-07T02:40:55.450Z,22.28
2018-09-07T02:41:35.956Z,22.4
2018-09-07T02:42:16.523Z,22.24
2018-09-07T02:42:57.001Z,22.21
2018-09-07T02:43:37.520Z,22.2
2018-09-07T02:44:17.983Z,22.2
2018-09-07T02:44:58.503Z,22.12
2018-09-07T02:45:38.972Z,22.2
2018-09-07T02:46:19.464Z,22
2018-09-07T02:46:59.956Z,22.15
2018-09-07T02:47:40.510Z,22.15
2018-09-07T02:48:20.974Z,22.15
2018-09-07T02:49:01.503Z,21.99
2018-09-07T02:49:41.983Z,22.03
2018-09-07T02:50:22.477Z,22.05
2018-09-07T02:51:02.993Z,22.03
2018-09-07T02:51:43.522Z,22.03
2018-09-07T02:52:24.002Z,22.2
2018-09-07T02:53:04.929Z,22.17
2018-09-07T02:53:45.442Z,22.17
2018-09-07T02:54:25.879Z,22.17
2018-09-07T02:55:06.368Z,22.18
2018-09-07T02:55:46.832Z,22.2
2018-09-07T02:56:27.313Z,22.21
2018-09-07T02:57:07.802Z,22.14
2018-09-07T02:57:48.319Z,22.21
2018-09-07T02:58:28.810Z,22.22
2018-09-07T02:59:09.271Z,22.17
2018-09-07T02:59:49.766Z,22.17
2018-09-07T03:00:30.259Z,22.24
2018-09-07T03:01:10.763Z,22.22
2018-09-07T03:01:51.491Z,22.14
2018-09-07T03:02:31.917Z,22.21
2018-09-07T03:03:12.383Z,22.12
2018-09-07T03:03:52.915Z,22.12
2018-09-07T03:04:33.420Z,22.15
2018-09-07T03:05:13.876Z,22.18
2018-09-07T03:05:54.401Z,22.1
2018-09-07T03:06:34.876Z,22.21
2018-09-07T03:07:15.395Z,22.2
2018-09-07T03:07:55.910Z,22.14
2018-09-07T03:08:36.397Z,22.2
2018-09-07T03:09:16.907Z,22.27
2018-09-07T03:09:57.364Z,22.2
2018-09-07T03:10:37.900Z,22.31
2018-09-07T03:11:18.360Z,22.17
2018-09-07T03:11:58.882Z,22.27
2018-09-07T03:12:39.336Z,22.2
2018-09-07T03:13:19.820Z,22.2
2018-09-07T03:14:00.299Z,22.2
2018-09-07T03:14:40.822Z,22.2
2018-09-07T03:15:21.301Z,22.27
2018-09-07T03:16:01.761Z,22.27
2018-09-07T03:16:42.256Z,22.28
2018-09-07T03:17:22.763Z,22.21
2018-09-07T03:18:03.234Z,22.3
2018-09-07T03:18:43.809Z,22.27
2018-09-07T03:19:24.304Z,22.3
2018-09-07T03:20:04.822Z,22.28
2018-09-07T03:20:45.341Z,22.31
2018-09-07T03:21:25.872Z,22.28
2018-09-07T03:22:06.297Z,22.28
2018-09-07T03:22:46.804Z,22.3
2018-09-07T03:23:27.411Z,22.24
2018-09-07T03:24:07.798Z,22.31
2018-09-07T03:24:48.269Z,22.33
2018-09-07T03:25:28.865Z,22.3
2018-09-07T03:26:09.280Z,22.27
2018-09-07T03:26:49.843Z,22.22
2018-09-07T03:27:30.345Z,22.37
2018-09-07T03:28:10.817Z,22.28
2018-09-07T03:28:51.347Z,22.3
2018-09-07T03:29:31.852Z,22.27
2018-09-07T03:30:12.336Z,22.2
2018-09-07T03:30:52.781Z,22.18
2018-09-07T03:31:33.337Z,22.33
2018-09-07T03:32:13.822Z,22.3
2018-09-07T03:32:54.314Z,22.35
2018-09-07T03:33:34.786Z,22.31
2018-09-07T03:34:15.306Z,22.27
2018-09-07T03:34:55.795Z,22.28
2018-09-07T03:35:36.294Z,22.21
2018-09-07T03:36:16.769Z,22.07
2018-09-07T03:36:57.305Z,22.12
2018-09-07T03:37:37.811Z,22.21
2018-09-07T03:38:18.309Z,22.2
2018-09-07T03:38:58.848Z,22.14
2018-09-07T03:39:39.295Z,22.14
2018-09-07T03:40:19.861Z,22.3
2018-09-07T03:41:00.407Z,22.3
2018-09-07T03:41:40.922Z,22.17
2018-09-07T03:42:21.416Z,22.18
2018-09-07T03:43:01.896Z,22.24
2018-09-07T03:43:42.400Z,22.2
2018-09-07T03:44:22.917Z,22.15
2018-09-07T03:45:03.526Z,22.22
2018-09-07T03:45:44.038Z,22.17
2018-09-07T03:46:24.523Z,22.2
2018-09-07T03:47:05.041Z,21.99
2018-09-07T03:47:45.591Z,22.02
2018-09-07T03:48:26.046Z,22.07
2018-09-07T03:49:06.556Z,22.06
2018-09-07T03:49:47.056Z,22.21
2018-09-07T03:50:27.495Z,22.22
2018-09-07T03:51:08.027Z,22.18
2018-09-07T03:51:48.518Z,22.18
2018-09-07T03:52:29.064Z,22.17
2018-09-07T03:53:09.493Z,22.17
2018-09-07T03:53:50.015Z,22.05
2018-09-07T03:54:30.478Z,22
2018-09-07T03:55:10.929Z,22.03
2018-09-07T03:55:53.002Z,22
2018-09-07T03:56:36.314Z,22.03
2018-09-07T03:57:16.807Z,22.06
2018-09-07T03:57:57.291Z,22.07
2018-09-07T03:58:37.796Z,22.02
2018-09-07T03:59:18.796Z,22.03
2018-09-07T04:00:00.339Z,22.05
2018-09-07T04:00:40.843Z,22.12
2018-09-07T04:01:21.378Z,22.14
2018-09-07T04:02:01.828Z,22.14
2018-09-07T04:02:42.319Z,22.2
2018-09-07T04:03:22.835Z,22.22
2018-09-07T04:04:03.376Z,22.12
2018-09-07T04:04:43.769Z,22.03
2018-09-07T04:05:24.280Z,22.05
2018-09-07T04:06:04.779Z,22.07
2018-09-07T04:06:45.407Z,22
2018-09-07T04:07:25.774Z,22.15
2018-09-07T04:08:06.220Z,22.17
2018-09-07T04:08:46.746Z,22.17
2018-09-07T04:09:27.260Z,21.99
2018-09-07T04:10:08.378Z,22.07
2018-09-07T04:10:48.780Z,22.06
2018-09-07T04:11:29.292Z,21.92
2018-09-07T04:12:09.769Z,21.98
2018-09-07T04:12:50.275Z,21.9
2018-09-07T04:13:30.798Z,22.03
2018-09-07T04:14:11.282Z,22.05
2018-09-07T04:14:51.767Z,22.06
2018-09-07T04:15:32.289Z,22.05
2018-09-07T04:16:12.804Z,22.06
2018-09-07T04:16:53.330Z,22.12
2018-09-07T04:17:33.871Z,22.1
2018-09-07T04:18:14.369Z,22.18
2018-09-07T04:18:54.873Z,22.12
2018-09-07T04:19:35.392Z,22.17
2018-09-07T04:20:15.905Z,22.1
2018-09-07T04:20:56.408Z,22.03
2018-09-07T04:21:36.982Z,21.98
2018-09-07T04:22:17.443Z,22.09
2018-09-07T04:22:57.939Z,21.98
2018-09-07T04:23:38.403Z,22.09
2018-09-07T04:24:18.932Z,22.09
2018-09-07T04:24:59.467Z,22.14
2018-09-07T04:25:39.940Z,22.07
2018-09-07T04:26:20.454Z,22.03
2018-09-07T04:27:01.033Z,21.99
2018-09-07T04:27:42.199Z,21.92
2018-09-07T04:28:22.821Z,21.84
2018-09-07T04:29:03.222Z,22.02
2018-09-07T04:29:43.669Z,21.91
2018-09-07T04:30:24.194Z,22
2018-09-07T04:31:04.641Z,21.99
2018-09-07T04:31:45.195Z,22.03
2018-09-07T04:32:25.715Z,21.98
2018-09-07T04:33:06.241Z,22.06
2018-09-07T04:33:46.744Z,22.02
2018-09-07T04:34:27.251Z,21.96
2018-09-07T04:35:07.744Z,21.98
2018-09-07T04:35:48.198Z,21.98
2018-09-07T04:36:28.728Z,21.84
2018-09-07T04:37:09.255Z,21.94
2018-09-07T04:37:49.799Z,21.99
2018-09-07T04:38:30.204Z,21.94
2018-09-07T04:39:10.702Z,21.96
2018-09-07T04:39:51.240Z,21.91
2018-09-07T04:40:31.715Z,21.94
2018-09-07T04:41:12.364Z,21.94
2018-09-07T04:41:52.759Z,21.96
2018-09-07T04:42:33.278Z,22.02
2018-09-07T04:43:13.738Z,21.96
2018-09-07T04:43:54.260Z,22.07
2018-09-07T04:44:34.838Z,22.05
2018-09-07T04:45:15.338Z,21.94
2018-09-07T04:45:55.826Z,21.91
2018-09-07T04:46:36.360Z,21.77
2018-09-07T04:47:16.831Z,21.94
2018-09-07T04:47:57.405Z,21.96
2018-09-07T04:48:37.840Z,21.98
2018-09-07T04:49:18.343Z,21.9
2018-09-07T04:49:58.854Z,21.98
2018-09-07T04:50:39.483Z,21.8
2018-09-07T04:51:20.639Z,21.83
2018-09-07T04:52:01.116Z,21.82
2018-09-07T04:52:41.624Z,21.8
2018-09-07T04:53:22.249Z,21.91
2018-09-07T04:54:02.791Z,21.92
2018-09-07T04:54:43.297Z,21.84
2018-09-07T04:55:23.818Z,21.84
2018-09-07T04:56:04.448Z,21.82
2018-09-07T04:56:44.964Z,21.88
2018-09-07T04:57:25.513Z,21.9
2018-09-07T04:58:06.047Z,21.91
2018-09-07T04:58:46.513Z,21.94
2018-09-07T04:59:27.027Z,21.98
2018-09-07T05:00:07.753Z,22
2018-09-07T05:00:48.264Z,21.86
2018-09-07T05:01:28.766Z,21.94
2018-09-07T05:02:09.265Z,21.92
2018-09-07T05:02:49.736Z,21.92
2018-09-07T05:03:30.199Z,21.86
2018-09-07T05:04:10.710Z,21.88
2018-09-07T05:04:51.246Z,21.84
2018-09-07T05:05:31.738Z,21.94
2018-09-07T05:06:12.212Z,21.75
2018-09-07T05:06:52.659Z,21.92
2018-09-07T05:07:33.160Z,21.67
2018-09-07T05:08:13.654Z,21.71
2018-09-07T05:08:54.298Z,21.65
2018-09-07T05:09:34.767Z,21.61
2018-09-07T05:10:15.259Z,21.61
2018-09-07T05:10:55.803Z,21.49
2018-09-07T05:11:36.290Z,21.62
2018-09-07T05:12:16.840Z,21.65
2018-09-07T05:12:57.348Z,21.75
2018-09-07T05:13:37.873Z,21.79
2018-09-07T05:14:18.372Z,21.84
2018-09-07T05:14:58.856Z,21.8
2018-09-07T05:15:39.424Z,21.83
2018-09-07T05:16:19.845Z,21.92
2018-09-07T05:17:00.335Z,21.9
2018-09-07T05:17:40.887Z,21.96
2018-09-07T05:18:21.329Z,21.98
2018-09-07T05:19:01.819Z,21.9
2018-09-07T05:19:42.353Z,21.94
2018-09-07T05:20:22.834Z,21.91
2018-09-07T05:21:03.346Z,21.84
2018-09-07T05:21:43.904Z,21.91
2018-09-07T05:22:24.341Z,21.91
2018-09-07T05:23:04.864Z,21.99
2018-09-07T05:23:45.345Z,22.14
2018-09-07T05:24:25.882Z,22.18
2018-09-07T05:25:06.333Z,22.14
2018-09-07T05:25:46.835Z,22.27
2018-09-07T05:26:27.403Z,22.31
2018-09-07T05:27:07.900Z,22.28
2018-09-07T05:27:48.403Z,22.15
2018-09-07T05:28:28.878Z,22.15
2018-09-07T05:29:09.390Z,22.17
2018-09-07T05:29:49.838Z,22.27
2018-09-07T05:30:30.348Z,22.31
2018-09-07T05:31:10.811Z,22.45
2018-09-07T05:31:51.434Z,22.4
2018-09-07T05:32:31.972Z,22.47
2018-09-07T05:33:12.526Z,22.45
2018-09-07T05:33:52.987Z,22.51
2018-09-07T05:34:33.482Z,22.51
2018-09-07T05:35:13.954Z,22.47
2018-09-07T05:35:54.499Z,22.52
2018-09-07T05:36:35.015Z,22.39
2018-09-07T05:37:15.580Z,22.52
2018-09-07T05:37:56.096Z,22.54
2018-09-07T05:38:36.633Z,22.45
2018-09-07T05:39:17.177Z,22.45
2018-09-07T05:39:57.700Z,22.35
2018-09-07T05:40:38.204Z,22.27
2018-09-07T05:41:18.709Z,22.36
2018-09-07T05:41:59.243Z,22.33
2018-09-07T05:42:39.812Z,22.36
2018-09-07T05:43:20.311Z,22.28
2018-09-07T05:45:08.639Z,22.36
2018-09-07T05:45:49.156Z,22.35
2018-09-07T05:46:29.701Z,22.45
2018-09-07T05:47:10.189Z,22.54
2018-09-07T05:47:50.775Z,22.36
2018-09-07T05:48:31.293Z,22.43
2018-09-07T05:49:11.879Z,22.31
2018-09-07T05:49:52.562Z,22.33
2018-09-07T05:50:32.905Z,22.45
2018-09-07T05:51:13.427Z,22.42
2018-09-07T05:51:53.956Z,22.42
2018-09-07T05:52:34.589Z,22.52
2018-09-07T05:53:15.121Z,22.49
2018-09-07T05:53:55.626Z,22.47
2018-09-07T05:54:36.132Z,22.51
2018-09-07T05:55:16.790Z,22.51
2018-09-07T05:55:57.264Z,22.54
2018-09-07T05:56:37.782Z,22.52
2018-09-07T05:57:18.280Z,22.6
2018-09-07T05:57:58.837Z,22.62
2018-09-07T05:58:39.366Z,22.68
2018-09-07T05:59:19.978Z,22.68
2018-09-07T06:00:00.512Z,22.72
2018-09-07T06:00:41.041Z,22.72
2018-09-07T06:01:21.544Z,22.76
2018-09-07T06:02:02.155Z,22.85
2018-09-07T06:02:42.663Z,23.02
2018-09-07T06:03:23.251Z,22.97
2018-09-07T06:04:03.697Z,23.01
2018-09-07T06:04:44.222Z,23
2018-09-07T06:05:24.753Z,22.97
2018-09-07T06:06:05.260Z,23.13
2018-09-07T06:06:45.780Z,23.12
2018-09-07T06:07:26.366Z,23.19
2018-09-07T06:08:06.806Z,23.27
2018-09-07T06:08:48.118Z,23.16
2018-09-07T06:09:28.653Z,23.22
2018-09-07T06:10:09.157Z,23.27
2018-09-07T06:10:49.711Z,23.23
2018-09-07T06:11:30.190Z,23.36
2018-09-07T06:12:10.721Z,23.38
2018-09-07T06:12:51.215Z,23.31
2018-09-07T06:13:31.718Z,23.22
2018-09-07T06:14:12.236Z,23.13
2018-09-07T06:14:52.746Z,23.15
2018-09-07T06:15:33.237Z,23.28
2018-09-07T06:16:13.827Z,23.38
2018-09-07T06:16:54.386Z,23.23
2018-09-07T06:17:34.870Z,23.27
2018-09-07T06:18:15.457Z,23.27
2018-09-07T06:18:55.948Z,23.36
2018-09-07T06:21:09.481Z,23.4
2018-09-07T06:21:49.986Z,23.4
2018-09-07T06:22:30.545Z,23.48
2018-09-07T06:23:11.046Z,23.33
2018-09-07T06:23:51.579Z,23.42
2018-09-07T06:24:32.162Z,23.46
2018-09-07T06:25:13.528Z,23.36
2018-09-07T06:25:54.020Z,23.28
2018-09-07T06:26:34.544Z,23.36
2018-09-07T06:27:15.028Z,23.32
2018-09-07T06:27:55.643Z,23.28
2018-09-07T06:28:36.052Z,23.27
2018-09-07T06:29:16.597Z,23.36
2018-09-07T06:29:57.069Z,23.35
2018-09-07T06:30:37.639Z,23.33
2018-09-07T06:31:18.075Z,23.39
2018-09-07T06:31:58.619Z,23.38
2018-09-07T06:32:39.202Z,23.27
2018-09-07T06:33:19.676Z,23.27
2018-09-07T06:34:00.139Z,23.16
2018-09-07T06:34:41.514Z,23.16
2018-09-07T06:35:21.975Z,23.17
2018-09-07T06:36:02.534Z,23.22
2018-09-07T06:36:43.070Z,23.2
2018-09-07T06:37:23.567Z,23.16
2018-09-07T06:38:04.003Z,23.13
2018-09-07T06:38:44.708Z,23.09
2018-09-07T06:39:25.100Z,22.98
2018-09-07T06:40:05.543Z,23.13
2018-09-07T06:40:46.390Z,23.1
2018-09-07T06:41:26.845Z,23.15
2018-09-07T06:42:07.347Z,23.23
2018-09-07T06:42:47.926Z,23.4
2018-09-07T06:43:28.371Z,23.4
2018-09-07T06:44:08.925Z,23.42
2018-09-07T06:44:49.375Z,23.51
2018-09-07T06:45:29.871Z,23.31
2018-09-07T06:46:10.351Z,23.36
2018-09-07T06:46:50.900Z,23.47
2018-09-07T06:47:31.357Z,23.5
2018-09-07T06:48:11.900Z,23.58
2018-09-07T06:48:52.959Z,23.63
2018-09-07T06:49:33.514Z,23.69
2018-09-07T06:50:13.965Z,23.7
2018-09-07T06:50:55.072Z,23.68
2018-09-07T06:51:35.576Z,23.65
2018-09-07T06:52:16.165Z,23.68
2018-09-07T06:52:56.627Z,23.53
2018-09-07T06:53:37.100Z,23.53
2018-09-07T06:54:17.646Z,23.68
2018-09-07T06:54:58.126Z,23.63
2018-09-07T06:55:38.631Z,23.65
2018-09-07T06:56:19.103Z,23.55
2018-09-07T06:56:59.596Z,23.68
2018-09-07T06:57:40.066Z,23.72
2018-09-07T06:58:20.546Z,23.76
2018-09-07T06:59:01.148Z,23.9
2018-09-07T06:59:41.637Z,23.88
2018-09-07T07:00:22.496Z,23.93
2018-09-07T07:01:02.965Z,23.97
2018-09-07T07:01:43.537Z,23.94
2018-09-07T07:02:24.059Z,23.97
2018-09-07T07:03:04.521Z,23.98
2018-09-07T07:03:45.068Z,23.97
2018-09-07T07:04:25.625Z,23.87
2018-09-07T07:05:06.057Z,23.83
2018-09-07T07:05:46.929Z,23.9
2018-09-07T07:06:27.352Z,23.88
2018-09-07T07:07:07.893Z,23.85
2018-09-07T07:07:48.614Z,23.76
2018-09-07T07:08:29.191Z,23.73
2018-09-07T07:09:09.629Z,23.75
2018-09-07T07:09:50.166Z,23.69
2018-09-07T07:10:30.901Z,23.72
2018-09-07T07:11:11.175Z,23.69
2018-09-07T07:11:51.830Z,23.72
2018-09-07T07:12:32.662Z,23.69
2018-09-07T07:13:13.096Z,23.72
2018-09-07T07:13:53.571Z,23.69
2018-09-07T07:14:34.117Z,23.75
2018-09-07T07:15:14.571Z,23.66
2018-09-07T07:15:55.109Z,23.61
2018-09-07T07:16:35.715Z,23.73
2018-09-07T07:17:16.417Z,23.84
2018-09-07T07:17:56.974Z,23.88
2018-09-07T07:18:37.447Z,23.98
2018-09-07T07:19:17.898Z,24.06
2018-09-07T07:19:58.366Z,24.13
2018-09-07T07:20:38.889Z,24.27
2018-09-07T07:21:19.362Z,24.28
2018-09-07T07:21:59.859Z,24.39
2018-09-07T07:22:40.369Z,24.57
2018-09-07T07:23:20.885Z,24.65
2018-09-07T07:24:01.407Z,24.83
2018-09-07T07:24:41.947Z,24.87
2018-09-07T07:25:22.407Z,24.95
2018-09-07T07:26:02.907Z,24.98
2018-09-07T07:26:43.368Z,24.9
2018-09-07T07:27:23.948Z,24.88
2018-09-07T07:28:04.432Z,24.84
2018-09-07T07:28:44.951Z,24.87
2018-09-07T07:29:25.472Z,24.88
2018-09-07T07:30:05.993Z,25.03
2018-09-07T07:30:46.563Z,24.93
2018-09-07T07:31:27.111Z,24.9
2018-09-07T07:32:07.598Z,25
2018-09-07T07:32:48.131Z,24.98
2018-09-07T07:33:28.601Z,24.85
2018-09-07T07:34:09.076Z,24.9
2018-09-07T07:34:49.573Z,24.8
2018-09-07T07:35:30.073Z,24.81
2018-09-07T07:36:10.547Z,24.69
2018-09-07T07:36:51.284Z,24.67
2018-09-07T07:37:31.660Z,24.71
2018-09-07T07:38:12.176Z,24.68
2018-09-07T07:38:52.710Z,24.67
2018-09-07T07:39:33.217Z,24.39
2018-09-07T07:40:14.420Z,24.3
2018-09-07T07:40:54.919Z,24.37
2018-09-07T07:41:35.350Z,24.39
2018-09-07T07:42:15.842Z,24.42
2018-09-07T07:42:56.374Z,24.35
2018-09-07T07:43:37.826Z,24.25
2018-09-07T07:44:18.359Z,24.25
2018-09-07T07:44:58.877Z,24.34
2018-09-07T07:45:39.402Z,24.4
2018-09-07T07:46:19.853Z,24.45
2018-09-07T07:47:00.357Z,24.5
2018-09-07T07:47:40.994Z,24.46
2018-09-07T07:48:21.387Z,24.46
2018-09-07T07:49:01.875Z,24.43
2018-09-07T07:49:42.399Z,24.35
2018-09-07T07:50:23.094Z,24.31
2018-09-07T07:51:03.606Z,24.16
2018-09-07T07:51:44.154Z,24.12
2018-09-07T07:52:24.648Z,24.16
2018-09-07T07:53:05.192Z,24.13
2018-09-07T07:53:46.556Z,24.12
2018-09-07T07:54:27.111Z,24.06
2018-09-07T07:55:07.598Z,24.05
2018-09-07T07:55:48.158Z,24.05
2018-09-07T07:56:28.652Z,24.06
2018-09-07T07:57:09.137Z,24.08
2018-09-07T07:57:49.626Z,24.09
2018-09-07T07:58:30.165Z,23.84
2018-09-07T07:59:10.727Z,23.78
2018-09-07T07:59:51.271Z,23.72
2018-09-07T08:00:31.702Z,23.73
2018-09-07T08:01:12.236Z,23.88
2018-09-07T08:01:52.721Z,23.85
2018-09-07T08:02:33.205Z,24.06
2018-09-07T08:03:13.745Z,24.12
2018-09-07T08:03:54.334Z,24.1
2018-09-07T08:04:35.728Z,24.16
2018-09-07T08:05:16.200Z,24.06
2018-09-07T08:05:56.725Z,23.98
2018-09-07T08:06:37.215Z,23.9
2018-09-07T08:07:17.653Z,23.83
2018-09-07T08:07:58.186Z,23.87
2018-09-07T08:08:38.893Z,24.02
2018-09-07T08:09:19.476Z,23.91
2018-09-07T08:09:59.929Z,23.98
2018-09-07T08:10:40.350Z,24.08
2018-09-07T08:11:22.079Z,24.06
2018-09-07T08:12:02.594Z,24.05
2018-09-07T08:12:43.181Z,24.06
2018-09-07T08:13:23.659Z,23.97
2018-09-07T08:14:04.379Z,23.94
2018-09-07T08:14:45.061Z,24.06
2018-09-07T08:15:25.588Z,24.06
2018-09-07T08:16:06.073Z,24.16
2018-09-07T08:16:46.572Z,24.13
2018-09-07T08:17:27.274Z,24.09
2018-09-07T08:18:07.728Z,24.16
2018-09-07T08:18:48.275Z,24.05
2018-09-07T08:19:28.873Z,24.12
2018-09-07T08:20:09.443Z,24.02
2018-09-07T08:20:49.875Z,24.06
2018-09-07T08:21:30.583Z,24.05
2018-09-07T08:22:11.050Z,24.15
2018-09-07T08:22:52.337Z,24.05
2018-09-07T08:23:32.796Z,24.06
2018-09-07T08:24:13.509Z,24.02
2018-09-07T08:24:54.171Z,23.84
2018-09-07T08:25:34.654Z,23.88
2018-09-07T08:26:15.213Z,24
2018-09-07T08:26:55.667Z,23.94
2018-09-07T08:27:36.251Z,24.09
2018-09-07T08:28:16.755Z,24
2018-09-07T08:28:57.270Z,23.87
2018-09-07T08:29:37.813Z,23.76
2018-09-07T08:30:18.288Z,23.87
2018-09-07T08:30:58.825Z,23.87
2018-09-07T08:31:39.358Z,23.88
2018-09-07T08:32:19.931Z,23.84
2018-09-07T08:33:00.571Z,23.91
2018-09-07T08:33:40.905Z,23.85
2018-09-07T08:34:21.454Z,24.06
2018-09-07T08:35:02.092Z,24.09
2018-09-07T08:35:42.569Z,24.1
2018-09-07T08:36:23.167Z,24.13
2018-09-07T08:37:03.728Z,24.18
2018-09-07T08:37:44.487Z,24.24
2018-09-07T08:38:25.296Z,24.27
2018-09-07T08:39:06.333Z,24.27
2018-09-07T08:39:47.037Z,24.25
2018-09-07T08:40:27.647Z,24.22
2018-09-07T08:41:08.442Z,24.25
2018-09-07T08:41:49.179Z,24.1
2018-09-07T08:42:29.754Z,24.13
2018-09-07T08:43:10.251Z,24.24
2018-09-07T08:43:51.610Z,24.27
2018-09-07T08:44:33.130Z,24.15
2018-09-07T08:45:13.591Z,24.15
2018-09-07T08:45:54.267Z,24.16
2018-09-07T08:46:34.785Z,24.15
2018-09-07T08:47:15.269Z,24.28
2018-09-07T08:47:55.730Z,24.39
2018-09-07T08:48:36.491Z,24.52
2018-09-07T08:49:16.897Z,24.68